createdAt,value
2023-03-05T00:02:28.482Z,-4.45
2023-03-05T00:04:57.601Z,-4.45
2023-03-05T00:07:29.699Z,-4.45
2023-03-05T00:10:03.514Z,-4.44
2023-03-05T00:12:32.728Z,-4.44
2023-03-05T00:15:03.808Z,-4.44
2023-03-05T00:17:31.916Z,-4.40
2023-03-05T00:20:03.173Z,-4.37
2023-03-05T00:22:33.998Z,-4.34
2023-03-05T00:25:03.695Z,-4.32
2023-03-05T00:27:33.482Z,-4.31
2023-03-05T00:30:03.740Z,-4.31
2023-03-05T00:32:32.170Z,-4.31
2023-03-05T00:35:01.024Z,-4.30
2023-03-05T00:37:32.895Z,-4.28
2023-03-05T00:40:01.098Z,-4.26
2023-03-05T00:42:33.404Z,-4.24
2023-03-05T00:45:02.366Z,-4.22
2023-03-05T00:47:32.774Z,-4.21
2023-03-05T00:50:03.399Z,-4.19
2023-03-05T00:52:33.152Z,-4.17
2023-03-05T00:55:03.209Z,-4.12
2023-03-05T00:57:32.434Z,-4.10
2023-03-05T01:00:04.368Z,-4.10
2023-03-05T01:02:36.064Z,-4.09
2023-03-05T01:05:06.129Z,-4.09
2023-03-05T01:07:35.501Z,-4.11
2023-03-05T01:10:06.802Z,-4.12
2023-03-05T01:12:34.625Z,-4.12
2023-03-05T01:15:06.984Z,-4.11
2023-03-05T01:17:35.161Z,-4.10
2023-03-05T01:20:06.289Z,-4.10
2023-03-05T01:22:36.514Z,-4.12
2023-03-05T01:25:07.175Z,-4.13
2023-03-05T01:27:37.000Z,-4.14
2023-03-05T01:30:08.551Z,-4.14
2023-03-05T01:32:36.562Z,-4.14
2023-03-05T01:35:06.860Z,-4.13
2023-03-05T01:37:40.356Z,-4.11
2023-03-05T01:40:11.913Z,-4.11
2023-03-05T01:42:41.482Z,-4.11
2023-03-05T01:45:15.262Z,-4.11
2023-03-05T01:47:44.021Z,-4.10
2023-03-05T01:50:17.718Z,-4.09
2023-03-05T01:52:58.794Z,-4.08
2023-03-05T01:55:30.667Z,-4.06
2023-03-05T01:58:12.565Z,-4.06
2023-03-05T02:00:49.685Z,-4.06
2023-03-05T02:03:18.731Z,-4.07
2023-03-05T02:05:46.586Z,-4.07
2023-03-05T02:08:19.923Z,-4.06
2023-03-05T02:10:51.873Z,-4.03
2023-03-05T02:13:23.973Z,-4.02
2023-03-05T02:15:55.787Z,-4.00
2023-03-05T02:18:24.857Z,-4.00
2023-03-05T02:20:56.706Z,-3.99
2023-03-05T02:23:28.902Z,-3.98
2023-03-05T02:25:58.793Z,-3.95
2023-03-05T02:28:52.323Z,-3.92
2023-03-05T02:31:23.987Z,-3.88
2023-03-05T02:33:55.735Z,-3.87
2023-03-05T02:36:25.808Z,-3.84
2023-03-05T02:38:58.759Z,-3.82
2023-03-05T02:41:26.831Z,-3.81
2023-03-05T02:43:56.926Z,-3.79
2023-03-05T02:46:25.659Z,-3.77
2023-03-05T02:48:57.171Z,-3.73
2023-03-05T02:51:26.021Z,-3.71
2023-03-05T02:53:56.235Z,-3.70
2023-03-05T02:56:28.735Z,-3.69
2023-03-05T02:59:00.833Z,-3.69
2023-03-05T03:01:30.229Z,-3.68
2023-03-05T03:04:02.258Z,-3.70
2023-03-05T03:06:30.478Z,-3.68
2023-03-05T03:08:59.677Z,-3.66
2023-03-05T03:11:28.792Z,-3.65
2023-03-05T03:13:58.090Z,-3.66
2023-03-05T03:16:28.347Z,-3.66
2023-03-05T03:18:56.157Z,-3.67
2023-03-05T03:21:26.551Z,-3.68
2023-03-05T03:23:55.203Z,-3.69
2023-03-05T03:26:26.909Z,-3.67
2023-03-05T03:28:56.041Z,-3.65
2023-03-05T03:31:25.322Z,-3.64
2023-03-05T03:33:56.516Z,-3.65
2023-03-05T03:36:26.278Z,-3.65
2023-03-05T03:38:54.501Z,-3.65
2023-03-05T03:41:23.819Z,-3.66
2023-03-05T03:43:52.737Z,-3.67
2023-03-05T03:46:22.627Z,-3.67
2023-03-05T03:48:51.977Z,-3.66
2023-03-05T03:51:22.630Z,-3.66
2023-03-05T03:53:54.538Z,-3.67
2023-03-05T03:56:24.679Z,-3.68
2023-03-05T03:58:55.662Z,-3.69
2023-03-05T04:01:24.343Z,-3.70
2023-03-05T04:03:53.218Z,-3.68
2023-03-05T04:06:23.106Z,-3.67
2023-03-05T04:08:51.834Z,-3.66
2023-03-05T04:11:23.134Z,-3.64
2023-03-05T04:13:54.234Z,-3.64
2023-03-05T04:16:24.277Z,-3.63
2023-03-05T04:18:52.684Z,-3.62
2023-03-05T04:21:21.236Z,-3.62
2023-03-05T04:23:51.485Z,-3.61
2023-03-05T04:26:23.213Z,-3.62
2023-03-05T04:28:50.798Z,-3.64
2023-03-05T04:31:20.424Z,-3.68
2023-03-05T04:33:48.604Z,-3.73
2023-03-05T04:36:19.188Z,-3.76
2023-03-05T04:38:50.874Z,-3.79
2023-03-05T04:41:20.685Z,-3.82
2023-03-05T04:43:48.490Z,-3.86
2023-03-05T04:46:21.899Z,-3.87
2023-03-05T04:48:50.809Z,-3.87
2023-03-05T04:51:18.893Z,-3.85
2023-03-05T04:53:48.646Z,-3.82
2023-03-05T04:56:20.604Z,-3.79
2023-03-05T04:58:49.359Z,-3.76
2023-03-05T05:01:21.312Z,-3.73
2023-03-05T05:03:50.776Z,-3.68
2023-03-05T05:06:18.357Z,-3.62
2023-03-05T05:08:48.059Z,-3.56
2023-03-05T05:11:16.968Z,-3.52
2023-03-05T05:13:46.888Z,-3.48
2023-03-05T05:16:17.331Z,-3.44
2023-03-05T05:18:46.400Z,-3.40
2023-03-05T05:21:18.346Z,-3.37
2023-03-05T05:23:46.293Z,-3.35
2023-03-05T05:26:17.377Z,-3.34
2023-03-05T05:28:46.784Z,-3.31
2023-03-05T05:31:17.464Z,-3.28
2023-03-05T05:33:49.805Z,-3.25
2023-03-05T05:36:22.502Z,-3.23
2023-03-05T05:38:51.204Z,-3.21
2023-03-05T05:41:20.650Z,-3.20
2023-03-05T05:43:52.226Z,-3.17
2023-03-05T05:46:22.487Z,-3.14
2023-03-05T05:48:51.431Z,-3.12
2023-03-05T05:51:22.826Z,-3.09
2023-03-05T05:53:53.932Z,-3.06
2023-03-05T05:56:25.174Z,-3.01
2023-03-05T05:58:55.558Z,-2.95
2023-03-05T06:01:29.954Z,-2.87
2023-03-05T06:04:03.312Z,-2.78
2023-03-05T06:06:34.636Z,-2.72
2023-03-05T06:09:05.175Z,-2.68
2023-03-05T06:11:35.619Z,-2.63
2023-03-05T06:14:08.451Z,-2.57
2023-03-05T06:16:38.239Z,-2.51
2023-03-05T06:19:05.956Z,-2.47
2023-03-05T06:21:35.395Z,-2.44
2023-03-05T06:24:04.455Z,-2.42
2023-03-05T06:26:34.090Z,-2.38
2023-03-05T06:29:04.512Z,-2.32
2023-03-05T06:31:36.153Z,-2.24
2023-03-05T06:34:05.673Z,-2.15
2023-03-05T06:36:33.690Z,-2.03
2023-03-05T06:39:01.640Z,-1.64
2023-03-05T06:41:32.801Z,-0.53
2023-03-05T06:44:04.781Z,-0.42
2023-03-05T06:46:35.545Z,-0.42
2023-03-05T06:49:04.250Z,-0.35
2023-03-05T06:51:35.027Z,-0.44
2023-03-05T06:54:06.943Z,-0.52
2023-03-05T06:56:39.767Z,-0.56
2023-03-05T06:59:08.993Z,-0.61
2023-03-05T07:01:40.013Z,-0.68
2023-03-05T07:04:09.616Z,-0.73
2023-03-05T07:06:41.867Z,-0.74
2023-03-05T07:09:16.502Z,-0.72
2023-03-05T07:11:45.800Z,-0.67
2023-03-05T07:14:16.881Z,-0.58
2023-03-05T07:16:47.086Z,-0.40
2023-03-05T07:19:16.031Z,-0.15
2023-03-05T07:21:48.286Z,0.01
2023-03-05T07:24:16.186Z,-0.00
2023-03-05T07:26:46.889Z,-0.05
2023-03-05T07:29:16.501Z,-0.06
2023-03-05T07:31:45.314Z,-0.04
2023-03-05T07:34:15.093Z,-0.01
2023-03-05T07:36:43.698Z,0.03
2023-03-05T07:39:13.963Z,0.14
2023-03-05T07:41:44.914Z,0.36
2023-03-05T07:44:17.220Z,0.61
2023-03-05T07:46:46.982Z,0.87
2023-03-05T07:49:15.389Z,1.05
2023-03-05T07:51:45.774Z,0.96
2023-03-05T07:54:15.386Z,0.84
2023-03-05T07:56:47.116Z,0.75
2023-03-05T07:59:15.933Z,0.64
2023-03-05T08:01:46.141Z,0.57
2023-03-05T08:04:15.467Z,0.47
2023-03-05T08:06:43.420Z,0.41
2023-03-05T08:09:13.116Z,0.36
2023-03-05T08:11:41.135Z,0.34
2023-03-05T08:14:11.353Z,0.34
2023-03-05T08:16:41.626Z,0.34
2023-03-05T08:19:12.708Z,0.40
2023-03-05T08:21:42.190Z,0.39
2023-03-05T08:24:12.742Z,0.44
2023-03-05T08:26:46.120Z,0.52
2023-03-05T08:29:15.806Z,0.62
2023-03-05T08:31:46.729Z,0.72
2023-03-05T08:34:15.109Z,0.85
2023-03-05T08:36:46.212Z,1.00
2023-03-05T08:39:16.800Z,1.11
2023-03-05T08:41:45.673Z,1.27
2023-03-05T08:44:14.656Z,1.44
2023-03-05T08:46:43.334Z,1.55
2023-03-05T08:49:13.698Z,1.65
2023-03-05T08:51:43.512Z,1.65
2023-03-05T08:54:12.067Z,1.59
2023-03-05T08:56:42.452Z,1.50
2023-03-05T08:59:13.698Z,1.40
2023-03-05T09:01:46.753Z,1.37
2023-03-05T09:04:16.753Z,1.36
2023-03-05T09:06:48.170Z,1.33
2023-03-05T09:09:16.631Z,1.37
2023-03-05T09:11:44.978Z,1.33
2023-03-05T09:15:03.236Z,1.31
2023-03-05T09:17:31.587Z,1.36
2023-03-05T09:20:02.281Z,1.40
2023-03-05T09:22:33.765Z,1.44
2023-03-05T09:25:03.933Z,1.41
2023-03-05T09:27:39.262Z,1.38
2023-03-05T09:30:09.652Z,1.37
2023-03-05T09:32:39.716Z,1.34
2023-03-05T09:35:09.458Z,1.29
2023-03-05T09:37:38.786Z,1.33
2023-03-05T09:40:08.256Z,1.29
2023-03-05T09:42:46.264Z,1.31
2023-03-05T09:45:38.109Z,1.34
2023-03-05T09:48:20.366Z,1.45
2023-03-05T09:50:53.207Z,1.53
2023-03-05T09:53:39.532Z,1.54
2023-03-05T09:56:12.696Z,1.58
2023-03-05T09:58:47.494Z,1.66
2023-03-05T10:01:31.776Z,1.73
2023-03-05T10:04:24.221Z,1.80
2023-03-05T10:06:58.537Z,1.98
2023-03-05T10:10:01.323Z,2.10
2023-03-05T10:12:32.619Z,2.18
2023-03-05T10:15:02.893Z,2.31
2023-03-05T10:17:50.845Z,2.44
2023-03-05T10:20:44.892Z,2.75
2023-03-05T10:23:25.025Z,3.42
2023-03-05T10:26:45.431Z,4.03
2023-03-05T10:29:39.179Z,4.29
2023-03-05T10:32:36.175Z,4.57
2023-03-05T10:35:13.863Z,4.41
2023-03-05T10:37:52.392Z,4.30
2023-03-05T10:40:24.734Z,4.13
2023-03-05T10:43:08.020Z,4.26
2023-03-05T10:45:44.580Z,4.57
2023-03-05T10:48:49.389Z,4.59
2023-03-05T10:51:24.240Z,4.41
2023-03-05T10:53:59.570Z,4.24
2023-03-05T10:56:29.157Z,4.07
2023-03-05T10:58:58.204Z,4.05
2023-03-05T11:01:29.704Z,3.94
2023-03-05T11:04:04.789Z,3.83
2023-03-05T11:06:55.874Z,3.68
2023-03-05T11:09:35.145Z,3.40
2023-03-05T11:12:19.561Z,3.57
2023-03-05T11:15:38.484Z,3.99
2023-03-05T11:18:18.097Z,4.02
2023-03-05T11:20:46.762Z,4.07
2023-03-05T11:23:24.398Z,4.10
2023-03-05T11:25:57.378Z,4.16
2023-03-05T11:28:39.439Z,4.03
2023-03-05T11:31:17.957Z,3.88
2023-03-05T11:34:02.799Z,3.73
2023-03-05T11:36:36.955Z,3.84
2023-03-05T11:39:33.131Z,3.88
2023-03-05T11:42:16.293Z,3.73
2023-03-05T11:44:50.322Z,3.64
2023-03-05T11:47:38.261Z,3.55
2023-03-05T11:50:34.714Z,3.57
2023-03-05T11:53:13.452Z,3.53
2023-03-05T11:56:19.205Z,3.60
2023-03-05T11:59:19.468Z,3.76
2023-03-05T12:01:53.518Z,4.21
2023-03-05T12:04:22.345Z,4.30
2023-03-05T12:07:00.167Z,4.22
2023-03-05T12:09:43.068Z,4.11
2023-03-05T12:12:36.393Z,4.26
2023-03-05T12:15:18.602Z,4.35
2023-03-05T12:18:31.093Z,4.28
2023-03-05T12:21:26.903Z,4.36
2023-03-05T12:24:01.602Z,4.41
2023-03-05T12:26:56.101Z,4.46
2023-03-05T12:29:41.257Z,4.48
2023-03-05T12:32:25.973Z,4.34
2023-03-05T12:35:26.888Z,4.32
2023-03-05T12:37:56.353Z,4.30
2023-03-05T12:40:29.170Z,4.15
2023-03-05T12:43:35.337Z,4.21
2023-03-05T12:46:27.019Z,5.07
2023-03-05T12:49:18.751Z,5.71
2023-03-05T12:51:54.912Z,5.71
2023-03-05T12:54:39.728Z,5.76
2023-03-05T12:57:26.300Z,5.76
2023-03-05T13:00:09.081Z,5.44
2023-03-05T13:02:45.022Z,4.99
2023-03-05T13:05:30.452Z,4.48
2023-03-05T13:08:19.297Z,4.14
2023-03-05T13:11:22.045Z,3.91
2023-03-05T13:13:52.744Z,3.92
2023-03-05T13:16:44.458Z,3.76
2023-03-05T13:19:17.906Z,3.64
2023-03-05T13:22:01.755Z,3.61
2023-03-05T13:24:33.467Z,3.67
2023-03-05T13:27:22.979Z,3.53
2023-03-05T13:29:53.536Z,3.74
2023-03-05T13:32:32.953Z,4.25
2023-03-05T13:35:12.803Z,4.94
2023-03-05T13:37:44.689Z,5.48
2023-03-05T13:40:22.860Z,5.86
2023-03-05T13:42:57.334Z,6.13
2023-03-05T13:45:30.351Z,6.34
2023-03-05T13:48:04.774Z,6.52
2023-03-05T13:50:40.103Z,6.66
2023-03-05T13:53:38.785Z,6.52
2023-03-05T13:56:14.669Z,6.11
2023-03-05T13:58:50.870Z,5.63
2023-03-05T14:01:48.649Z,4.92
2023-03-05T14:04:30.352Z,4.33
2023-03-05T14:07:00.843Z,3.94
2023-03-05T14:09:57.237Z,3.76
2023-03-05T14:12:38.891Z,3.55
2023-03-05T14:15:44.395Z,3.37
2023-03-05T14:18:16.764Z,3.08
2023-03-05T14:21:04.592Z,2.80
2023-03-05T14:23:38.612Z,2.64
2023-03-05T14:26:32.883Z,2.59
2023-03-05T14:29:17.777Z,2.40
2023-03-05T14:32:31.174Z,1.82
2023-03-05T14:35:03.803Z,1.27
2023-03-05T14:37:42.582Z,1.05
2023-03-05T14:40:13.897Z,0.97
2023-03-05T14:42:55.423Z,0.86
2023-03-05T14:45:31.550Z,1.19
2023-03-05T14:48:04.189Z,1.68
2023-03-05T14:50:44.566Z,1.91
2023-03-05T14:53:18.185Z,1.95
2023-03-05T14:55:50.442Z,1.83
2023-03-05T14:58:25.386Z,1.79
2023-03-05T15:01:03.824Z,1.57
2023-03-05T15:03:38.380Z,1.22
2023-03-05T15:06:26.202Z,0.92
2023-03-05T15:08:57.316Z,0.65
2023-03-05T15:11:29.488Z,0.42
2023-03-05T15:13:59.783Z,0.23
2023-03-05T15:16:32.200Z,0.18
2023-03-05T15:19:04.078Z,0.17
2023-03-05T15:21:34.540Z,0.07
2023-03-05T15:24:05.220Z,-0.10
2023-03-05T15:26:37.655Z,-0.24
2023-03-05T15:29:08.083Z,-0.42
2023-03-05T15:31:40.866Z,-0.65
2023-03-05T15:34:17.461Z,-0.76
2023-03-05T15:36:50.435Z,-0.89
2023-03-05T15:39:20.981Z,-1.01
2023-03-05T15:41:51.371Z,-1.07
2023-03-05T15:44:22.913Z,-1.08
2023-03-05T15:46:55.370Z,-1.12
2023-03-05T15:49:28.547Z,-1.13
2023-03-05T15:52:00.542Z,-1.12
2023-03-05T15:54:30.737Z,-1.18
2023-03-05T15:57:03.748Z,-1.28
2023-03-05T15:59:33.435Z,-1.42
2023-03-05T16:02:05.782Z,-1.52
2023-03-05T16:04:36.606Z,-1.62
2023-03-05T16:07:07.653Z,-1.71
2023-03-05T16:09:41.502Z,-1.70
2023-03-05T16:12:19.054Z,-1.70
2023-03-05T16:14:52.065Z,-1.72
2023-03-05T16:17:25.994Z,-1.72
2023-03-05T16:19:57.471Z,-1.74
2023-03-05T16:22:28.264Z,-1.79
2023-03-05T16:25:01.647Z,-1.86
2023-03-05T16:27:34.236Z,-1.90
2023-03-05T16:30:06.872Z,-1.90
2023-03-05T16:32:39.879Z,-1.96
2023-03-05T16:35:15.057Z,-1.97
2023-03-05T16:37:46.071Z,-1.97
2023-03-05T16:40:17.178Z,-2.00
2023-03-05T16:42:51.257Z,-2.07
2023-03-05T16:45:27.985Z,-2.11
2023-03-05T16:48:01.414Z,-2.16
2023-03-05T16:50:30.804Z,-2.18
2023-03-05T16:53:01.144Z,-2.21
2023-03-05T16:55:31.903Z,-2.29
2023-03-05T16:58:02.169Z,-2.37
2023-03-05T17:00:35.277Z,-2.42
2023-03-05T17:03:08.601Z,-2.43
2023-03-05T17:05:40.290Z,-2.44
2023-03-05T17:08:11.658Z,-2.50
2023-03-05T17:10:44.061Z,-2.53
2023-03-05T17:13:15.377Z,-2.56
2023-03-05T17:15:46.390Z,-2.61
2023-03-05T17:18:15.058Z,-2.66
2023-03-05T17:20:50.527Z,-2.72
2023-03-05T17:23:24.774Z,-2.77
2023-03-05T17:25:56.173Z,-2.80
2023-03-05T17:28:27.259Z,-2.83
2023-03-05T17:31:00.602Z,-2.84
2023-03-05T17:33:35.008Z,-2.83
2023-03-05T17:36:06.406Z,-2.80
2023-03-05T17:38:36.570Z,-2.80
2023-03-05T17:41:10.655Z,-2.84
2023-03-05T17:43:42.150Z,-2.89
2023-03-05T17:46:13.973Z,-2.90
2023-03-05T17:48:47.057Z,-2.93
2023-03-05T17:51:23.499Z,-3.02
2023-03-05T17:53:57.294Z,-3.12
2023-03-05T17:56:30.390Z,-3.21
2023-03-05T17:59:01.961Z,-3.27
2023-03-05T18:01:35.103Z,-3.31
2023-03-05T18:04:05.027Z,-3.35
2023-03-05T18:06:34.884Z,-3.37
2023-03-05T18:09:05.357Z,-3.36
2023-03-05T18:11:36.460Z,-3.31
2023-03-05T18:14:08.946Z,-3.27
2023-03-05T18:16:41.260Z,-3.26
2023-03-05T18:19:12.608Z,-3.28
2023-03-05T18:21:48.197Z,-3.33
2023-03-05T18:24:21.982Z,-3.38
2023-03-05T18:26:52.714Z,-3.42
2023-03-05T18:29:23.730Z,-3.47
2023-03-05T18:31:58.803Z,-3.50
2023-03-05T18:34:30.946Z,-3.55
2023-03-05T18:37:02.320Z,-3.57
2023-03-05T18:39:36.130Z,-3.57
2023-03-05T18:42:16.368Z,-3.57
2023-03-05T18:44:50.148Z,-3.54
2023-03-05T18:47:22.246Z,-3.53
2023-03-05T18:49:54.625Z,-3.53
2023-03-05T18:52:26.925Z,-3.58
2023-03-05T18:54:58.230Z,-3.64
2023-03-05T18:57:33.223Z,-3.66
2023-03-05T19:00:04.485Z,-3.68
2023-03-05T19:02:34.990Z,-3.69
2023-03-05T19:05:10.407Z,-3.72
2023-03-05T19:07:44.614Z,-3.75
2023-03-05T19:10:18.561Z,-3.74
2023-03-05T19:13:08.259Z,-3.72
2023-03-05T19:15:41.519Z,-3.70
2023-03-05T19:18:13.639Z,-3.67
2023-03-05T19:20:48.087Z,-3.64
2023-03-05T19:23:19.180Z,-3.60
2023-03-05T19:25:52.274Z,-3.58
2023-03-05T19:28:28.117Z,-3.56
2023-03-05T19:30:57.704Z,-3.55
2023-03-05T19:33:30.977Z,-3.56
2023-03-05T19:35:59.931Z,-3.61
2023-03-05T19:38:36.073Z,-3.67
2023-03-05T19:41:12.766Z,-3.72
2023-03-05T19:43:43.416Z,-3.77
2023-03-05T19:46:14.027Z,-3.79
2023-03-05T19:48:48.378Z,-3.78
2023-03-05T19:51:22.453Z,-3.78
2023-03-05T19:53:56.649Z,-3.79
2023-03-05T19:56:27.804Z,-3.81
2023-03-05T19:59:01.083Z,-3.86
2023-03-05T20:01:34.934Z,-3.92
2023-03-05T20:04:07.737Z,-4.00
2023-03-05T20:06:41.662Z,-4.06
2023-03-05T20:09:17.455Z,-4.07
2023-03-05T20:11:52.156Z,-4.07
2023-03-05T20:14:24.641Z,-4.09
2023-03-05T20:16:55.767Z,-4.08
2023-03-05T20:19:25.116Z,-4.11
2023-03-05T20:21:58.034Z,-4.16
2023-03-05T20:24:34.627Z,-4.23
2023-03-05T20:27:07.494Z,-4.28
2023-03-05T20:29:42.170Z,-4.31
2023-03-05T20:32:18.434Z,-4.34
2023-03-05T20:34:53.842Z,-4.37
2023-03-05T20:37:30.805Z,-4.36
2023-03-05T20:40:01.837Z,-4.38
2023-03-05T20:42:35.872Z,-4.40
2023-03-05T20:45:06.948Z,-4.42
2023-03-05T20:47:42.040Z,-4.41
2023-03-05T20:50:18.891Z,-4.43
2023-03-05T20:53:03.918Z,-4.42
2023-03-05T20:55:43.316Z,-4.41
2023-03-05T20:58:15.255Z,-4.42
2023-03-05T21:00:51.904Z,-4.43
2023-03-05T21:03:28.657Z,-4.42
2023-03-05T21:06:07.454Z,-4.41
2023-03-05T21:08:41.325Z,-4.39
2023-03-05T21:11:17.384Z,-4.40
2023-03-05T21:13:50.774Z,-4.42
2023-03-05T21:16:24.383Z,-4.43
2023-03-05T21:19:34.511Z,-4.45
2023-03-05T21:25:43.341Z,-4.49
2023-03-05T21:28:42.240Z,-4.52
2023-03-05T21:31:22.189Z,-4.52
2023-03-05T21:34:16.635Z,-4.53
2023-03-05T21:36:51.873Z,-4.56
2023-03-05T21:39:45.427Z,-4.58
2023-03-05T21:42:35.056Z,-4.63
2023-03-05T21:45:26.878Z,-4.69
2023-03-05T21:48:13.820Z,-4.74
2023-03-05T21:50:47.961Z,-4.78
2023-03-05T21:53:18.250Z,-4.76
2023-03-05T21:56:03.903Z,-4.78
2023-03-05T21:58:33.237Z,-4.80
2023-03-05T22:01:03.165Z,-4.80
2023-03-05T22:03:32.897Z,-4.80
2023-03-05T22:06:05.142Z,-4.81
2023-03-05T22:08:34.322Z,-4.81
2023-03-05T22:11:09.489Z,-4.82
2023-03-05T22:13:39.346Z,-4.84
2023-03-05T22:16:10.674Z,-4.85
2023-03-05T22:18:40.863Z,-4.85
2023-03-05T22:21:23.302Z,-4.86
2023-03-05T22:23:53.125Z,-4.90
2023-03-05T22:26:25.335Z,-4.92
2023-03-05T22:28:55.349Z,-4.94
2023-03-05T22:31:27.186Z,-4.94
2023-03-05T22:33:58.259Z,-4.94
2023-03-05T22:36:28.942Z,-4.96
2023-03-05T22:39:00.012Z,-4.96
2023-03-05T22:41:30.881Z,-5.00
2023-03-05T22:44:01.519Z,-5.02
2023-03-05T22:46:32.562Z,-5.05
2023-03-05T22:49:03.985Z,-5.06
2023-03-05T22:51:34.968Z,-5.05
2023-03-05T22:54:07.185Z,-5.04
2023-03-05T22:56:36.519Z,-5.02
2023-03-05T22:59:07.447Z,-4.98
2023-03-05T23:01:37.912Z,-4.96
2023-03-05T23:04:18.457Z,-4.94
2023-03-05T23:06:50.137Z,-4.94
2023-03-05T23:09:20.194Z,-4.95
2023-03-05T23:11:51.814Z,-4.97
2023-03-05T23:15:10.265Z,-5.00
2023-03-05T23:17:42.671Z,-5.04
2023-03-05T23:20:16.409Z,-5.08
2023-03-05T23:22:46.443Z,-5.12
2023-03-05T23:25:16.493Z,-5.16
2023-03-05T23:27:45.938Z,-5.24
2023-03-05T23:30:20.931Z,-5.25
2023-03-05T23:33:03.882Z,-5.23
2023-03-05T23:35:36.532Z,-5.22
2023-03-05T23:38:08.936Z,-5.23
2023-03-05T23:40:45.536Z,-5.25
2023-03-05T23:43:15.115Z,-5.28
2023-03-05T23:45:47.832Z,-5.28
2023-03-05T23:48:18.959Z,-5.30
2023-03-05T23:50:48.873Z,-5.35
2023-03-05T23:53:27.036Z,-5.36
2023-03-05T23:55:59.293Z,-5.37
2023-03-05T23:58:30.275Z,-5.38
